sensor_id;sensor_type;location;lat;lon;timestamp;P1;durP1;ratioP1;P2;durP2;ratioP2
47749;SDS011;49810;48.160;10.812;2023-05-29T00:00:42;19.80;;;8.55;;
47749;SDS011;49810;48.160;10.812;2023-05-29T00:03:10;17.40;;;9.00;;
47749;SDS011;49810;48.160;10.812;2023-05-29T00:05:38;16.90;;;8.68;;
47749;SDS011;49810;48.160;10.812;2023-05-29T00:08:06;17.60;;;8.82;;
47749;SDS011;49810;48.160;10.812;2023-05-29T00:10:34;17.48;;;9.15;;
47749;SDS011;49810;48.160;10.812;2023-05-29T00:13:03;20.00;;;8.88;;
47749;SDS011;49810;48.160;10.812;2023-05-29T00:15:35;13.38;;;8.07;;
47749;SDS011;49810;48.160;10.812;2023-05-29T00:18:03;15.52;;;8.27;;
47749;SDS011;49810;48.160;10.812;2023-05-29T00:20:31;15.98;;;8.57;;
47749;SDS011;49810;48.160;10.812;2023-05-29T00:23:01;15.18;;;9.00;;
47749;SDS011;49810;48.160;10.812;2023-05-29T00:25:31;15.40;;;8.00;;
47749;SDS011;49810;48.160;10.812;2023-05-29T00:27:59;16.48;;;8.77;;
47749;SDS011;49810;48.160;10.812;2023-05-29T00:30:27;14.02;;;8.52;;
47749;SDS011;49810;48.160;10.812;2023-05-29T00:32:56;15.80;;;8.98;;
47749;SDS011;49810;48.160;10.812;2023-05-29T00:35:24;18.92;;;8.73;;
47749;SDS011;49810;48.160;10.812;2023-05-29T00:37:52;17.17;;;9.27;;
47749;SDS011;49810;48.160;10.812;2023-05-29T00:40:20;20.17;;;9.10;;
47749;SDS011;49810;48.160;10.812;2023-05-29T00:42:48;15.95;;;9.35;;
47749;SDS011;49810;48.160;10.812;2023-05-29T00:45:16;16.75;;;8.90;;
47749;SDS011;49810;48.160;10.812;2023-05-29T00:47:45;18.90;;;9.50;;
47749;SDS011;49810;48.160;10.812;2023-05-29T00:50:15;20.40;;;9.48;;
47749;SDS011;49810;48.160;10.812;2023-05-29T00:52:43;17.88;;;9.68;;
47749;SDS011;49810;48.160;10.812;2023-05-29T00:55:12;20.48;;;9.38;;
47749;SDS011;49810;48.160;10.812;2023-05-29T00:57:41;19.08;;;9.52;;
47749;SDS011;49810;48.160;10.812;2023-05-29T01:00:12;17.30;;;10.00;;
47749;SDS011;49810;48.160;10.812;2023-05-29T01:02:43;20.02;;;10.27;;
47749;SDS011;49810;48.160;10.812;2023-05-29T01:05:12;16.83;;;8.93;;
47749;SDS011;49810;48.160;10.812;2023-05-29T01:07:42;16.55;;;9.57;;
47749;SDS011;49810;48.160;10.812;2023-05-29T01:10:10;18.15;;;8.52;;
47749;SDS011;49810;48.160;10.812;2023-05-29T01:12:40;18.92;;;9.35;;
47749;SDS011;49810;48.160;10.812;2023-05-29T01:15:14;16.63;;;9.10;;
47749;SDS011;49810;48.160;10.812;2023-05-29T01:17:47;16.63;;;8.55;;
47749;SDS011;49810;48.160;10.812;2023-05-29T01:20:23;18.17;;;9.68;;
47749;SDS011;49810;48.160;10.812;2023-05-29T01:23:06;20.50;;;9.55;;
47749;SDS011;49810;48.160;10.812;2023-05-29T01:25:42;18.40;;;9.13;;
47749;SDS011;49810;48.160;10.812;2023-05-29T01:28:19;16.38;;;9.18;;
47749;SDS011;49810;48.160;10.812;2023-05-29T01:30:48;17.77;;;9.55;;
47749;SDS011;49810;48.160;10.812;2023-05-29T01:33:17;19.08;;;9.60;;
47749;SDS011;49810;48.160;10.812;2023-05-29T01:35:45;22.67;;;10.02;;
47749;SDS011;49810;48.160;10.812;2023-05-29T01:38:15;16.30;;;9.48;;
47749;SDS011;49810;48.160;10.812;2023-05-29T01:40:43;17.20;;;9.55;;
47749;SDS011;49810;48.160;10.812;2023-05-29T01:43:11;18.13;;;9.45;;
47749;SDS011;49810;48.160;10.812;2023-05-29T01:45:42;16.92;;;9.15;;
47749;SDS011;49810;48.160;10.812;2023-05-29T01:48:12;20.75;;;9.30;;
47749;SDS011;49810;48.160;10.812;2023-05-29T01:50:40;17.83;;;9.52;;
47749;SDS011;49810;48.160;10.812;2023-05-29T01:53:10;18.15;;;9.27;;
47749;SDS011;49810;48.160;10.812;2023-05-29T01:55:38;17.77;;;9.75;;
47749;SDS011;49810;48.160;10.812;2023-05-29T01:58:06;16.70;;;9.00;;
47749;SDS011;49810;48.160;10.812;2023-05-29T02:00:36;15.98;;;8.82;;
47749;SDS011;49810;48.160;10.812;2023-05-29T02:03:06;19.83;;;9.70;;
47749;SDS011;49810;48.160;10.812;2023-05-29T02:05:34;15.48;;;9.05;;
47749;SDS011;49810;48.160;10.812;2023-05-29T02:08:02;17.80;;;9.20;;
47749;SDS011;49810;48.160;10.812;2023-05-29T02:10:30;20.92;;;9.52;;
47749;SDS011;49810;48.160;10.812;2023-05-29T02:12:58;19.73;;;9.98;;
47749;SDS011;49810;48.160;10.812;2023-05-29T02:15:26;15.65;;;9.35;;
47749;SDS011;49810;48.160;10.812;2023-05-29T02:17:55;16.88;;;9.70;;
47749;SDS011;49810;48.160;10.812;2023-05-29T02:20:25;18.60;;;9.77;;
47749;SDS011;49810;48.160;10.812;2023-05-29T02:22:53;18.90;;;9.77;;
47749;SDS011;49810;48.160;10.812;2023-05-29T02:25:21;19.42;;;9.68;;
47749;SDS011;49810;48.160;10.812;2023-05-29T02:27:49;19.50;;;10.05;;
47749;SDS011;49810;48.160;10.812;2023-05-29T02:30:17;20.33;;;10.05;;
47749;SDS011;49810;48.160;10.812;2023-05-29T02:32:46;16.40;;;9.38;;
47749;SDS011;49810;48.160;10.812;2023-05-29T02:35:14;20.98;;;9.80;;
47749;SDS011;49810;48.160;10.812;2023-05-29T02:37:45;17.92;;;9.68;;
47749;SDS011;49810;48.160;10.812;2023-05-29T02:40:15;18.13;;;10.02;;
47749;SDS011;49810;48.160;10.812;2023-05-29T02:42:43;18.33;;;9.82;;
47749;SDS011;49810;48.160;10.812;2023-05-29T02:45:11;20.75;;;10.43;;
47749;SDS011;49810;48.160;10.812;2023-05-29T02:47:38;15.50;;;9.57;;
47749;SDS011;49810;48.160;10.812;2023-05-29T02:50:07;20.95;;;9.57;;
47749;SDS011;49810;48.160;10.812;2023-05-29T02:52:35;23.05;;;9.95;;
47749;SDS011;49810;48.160;10.812;2023-05-29T02:55:05;17.23;;;9.02;;
47749;SDS011;49810;48.160;10.812;2023-05-29T02:57:33;20.05;;;9.68;;
47749;SDS011;49810;48.160;10.812;2023-05-29T03:00:02;16.50;;;9.32;;
47749;SDS011;49810;48.160;10.812;2023-05-29T03:02:32;19.67;;;9.75;;
47749;SDS011;49810;48.160;10.812;2023-05-29T03:05:01;21.00;;;10.43;;
47749;SDS011;49810;48.160;10.812;2023-05-29T03:07:29;19.90;;;10.40;;
47749;SDS011;49810;48.160;10.812;2023-05-29T03:09:57;18.38;;;9.85;;
47749;SDS011;49810;48.160;10.812;2023-05-29T03:12:27;17.45;;;10.02;;
47749;SDS011;49810;48.160;10.812;2023-05-29T03:14:56;20.77;;;9.85;;
47749;SDS011;49810;48.160;10.812;2023-05-29T03:17:25;17.83;;;10.43;;
47749;SDS011;49810;48.160;10.812;2023-05-29T03:19:53;23.50;;;9.73;;
47749;SDS011;49810;48.160;10.812;2023-05-29T03:22:21;18.52;;;9.60;;
47749;SDS011;49810;48.160;10.812;2023-05-29T03:24:49;19.45;;;9.75;;
47749;SDS011;49810;48.160;10.812;2023-05-29T03:27:17;17.10;;;9.68;;
47749;SDS011;49810;48.160;10.812;2023-05-29T03:29:51;17.13;;;9.88;;
47749;SDS011;49810;48.160;10.812;2023-05-29T03:32:19;21.02;;;10.23;;
47749;SDS011;49810;48.160;10.812;2023-05-29T03:34:47;19.48;;;9.65;;
47749;SDS011;49810;48.160;10.812;2023-05-29T03:37:15;18.33;;;9.70;;
47749;SDS011;49810;48.160;10.812;2023-05-29T03:39:43;18.00;;;9.38;;
47749;SDS011;49810;48.160;10.812;2023-05-29T03:42:13;20.27;;;9.60;;
47749;SDS011;49810;48.160;10.812;2023-05-29T03:44:41;20.63;;;9.63;;
47749;SDS011;49810;48.160;10.812;2023-05-29T03:47:11;17.30;;;9.70;;
47749;SDS011;49810;48.160;10.812;2023-05-29T03:49:40;19.27;;;9.88;;
47749;SDS011;49810;48.160;10.812;2023-05-29T03:52:08;17.65;;;9.38;;
47749;SDS011;49810;48.160;10.812;2023-05-29T03:54:36;21.48;;;10.20;;
47749;SDS011;49810;48.160;10.812;2023-05-29T03:57:05;17.00;;;9.25;;
47749;SDS011;49810;48.160;10.812;2023-05-29T03:59:33;19.70;;;9.80;;
47749;SDS011;49810;48.160;10.812;2023-05-29T04:02:01;19.38;;;9.60;;
47749;SDS011;49810;48.160;10.812;2023-05-29T04:04:31;17.85;;;9.55;;
47749;SDS011;49810;48.160;10.812;2023-05-29T04:06:59;17.17;;;9.15;;
47749;SDS011;49810;48.160;10.812;2023-05-29T04:09:27;18.20;;;9.73;;
47749;SDS011;49810;48.160;10.812;2023-05-29T04:11:55;17.38;;;9.88;;
47749;SDS011;49810;48.160;10.812;2023-05-29T04:14:23;18.60;;;9.82;;
47749;SDS011;49810;48.160;10.812;2023-05-29T04:16:51;16.80;;;9.68;;
47749;SDS011;49810;48.160;10.812;2023-05-29T04:19:19;20.08;;;10.02;;
47749;SDS011;49810;48.160;10.812;2023-05-29T04:21:49;18.02;;;9.73;;
47749;SDS011;49810;48.160;10.812;2023-05-29T04:24:17;17.63;;;9.82;;
47749;SDS011;49810;48.160;10.812;2023-05-29T04:26:44;16.80;;;9.23;;
47749;SDS011;49810;48.160;10.812;2023-05-29T04:29:12;16.17;;;9.70;;
47749;SDS011;49810;48.160;10.812;2023-05-29T04:31:44;28.30;;;15.05;;
47749;SDS011;49810;48.160;10.812;2023-05-29T04:34:13;20.73;;;10.85;;
47749;SDS011;49810;48.160;10.812;2023-05-29T04:36:45;17.02;;;10.10;;
47749;SDS011;49810;48.160;10.812;2023-05-29T04:39:15;20.10;;;10.68;;
47749;SDS011;49810;48.160;10.812;2023-05-29T04:41:43;45.88;;;27.88;;
47749;SDS011;49810;48.160;10.812;2023-05-29T04:44:15;21.23;;;10.90;;
47749;SDS011;49810;48.160;10.812;2023-05-29T04:46:46;20.80;;;11.00;;
47749;SDS011;49810;48.160;10.812;2023-05-29T04:49:15;22.77;;;10.90;;
47749;SDS011;49810;48.160;10.812;2023-05-29T04:51:43;17.17;;;10.65;;
47749;SDS011;49810;48.160;10.812;2023-05-29T04:54:11;20.45;;;10.73;;
47749;SDS011;49810;48.160;10.812;2023-05-29T04:56:41;21.67;;;11.07;;
47749;SDS011;49810;48.160;10.812;2023-05-29T04:59:12;20.60;;;10.95;;
47749;SDS011;49810;48.160;10.812;2023-05-29T05:01:41;22.30;;;11.20;;
47749;SDS011;49810;48.160;10.812;2023-05-29T05:04:11;21.23;;;10.40;;
47749;SDS011;49810;48.160;10.812;2023-05-29T05:06:38;21.70;;;10.48;;
47749;SDS011;49810;48.160;10.812;2023-05-29T05:09:07;20.95;;;10.82;;
47749;SDS011;49810;48.160;10.812;2023-05-29T05:11:37;17.00;;;10.23;;
47749;SDS011;49810;48.160;10.812;2023-05-29T05:14:07;17.75;;;10.10;;
47749;SDS011;49810;48.160;10.812;2023-05-29T05:16:35;22.88;;;10.45;;
47749;SDS011;49810;48.160;10.812;2023-05-29T05:19:03;21.48;;;11.18;;
47749;SDS011;49810;48.160;10.812;2023-05-29T05:21:34;21.55;;;11.43;;
47749;SDS011;49810;48.160;10.812;2023-05-29T05:24:02;18.15;;;10.63;;
47749;SDS011;49810;48.160;10.812;2023-05-29T05:26:31;16.30;;;10.02;;
47749;SDS011;49810;48.160;10.812;2023-05-29T05:28:59;19.48;;;10.55;;
47749;SDS011;49810;48.160;10.812;2023-05-29T05:31:31;16.02;;;10.02;;
47749;SDS011;49810;48.160;10.812;2023-05-29T05:33:59;21.85;;;10.77;;
47749;SDS011;49810;48.160;10.812;2023-05-29T05:36:27;15.82;;;8.48;;
47749;SDS011;49810;48.160;10.812;2023-05-29T05:39:00;18.02;;;8.73;;
47749;SDS011;49810;48.160;10.812;2023-05-29T05:41:30;17.00;;;9.38;;
47749;SDS011;49810;48.160;10.812;2023-05-29T05:43:59;18.40;;;8.52;;
47749;SDS011;49810;48.160;10.812;2023-05-29T05:46:42;20.23;;;9.60;;
47749;SDS011;49810;48.160;10.812;2023-05-29T05:49:11;15.60;;;8.75;;
47749;SDS011;49810;48.160;10.812;2023-05-29T05:51:40;17.27;;;7.95;;
47749;SDS011;49810;48.160;10.812;2023-05-29T05:54:08;19.30;;;8.93;;
47749;SDS011;49810;48.160;10.812;2023-05-29T05:56:36;19.40;;;8.95;;
47749;SDS011;49810;48.160;10.812;2023-05-29T05:59:07;17.77;;;9.30;;
47749;SDS011;49810;48.160;10.812;2023-05-29T06:01:35;16.65;;;8.63;;
47749;SDS011;49810;48.160;10.812;2023-05-29T06:04:05;18.27;;;9.65;;
47749;SDS011;49810;48.160;10.812;2023-05-29T06:06:34;16.95;;;9.27;;
47749;SDS011;49810;48.160;10.812;2023-05-29T06:09:02;17.15;;;8.45;;
47749;SDS011;49810;48.160;10.812;2023-05-29T06:11:32;15.40;;;8.48;;
47749;SDS011;49810;48.160;10.812;2023-05-29T06:14:00;17.48;;;8.65;;
47749;SDS011;49810;48.160;10.812;2023-05-29T06:16:28;18.25;;;9.38;;
47749;SDS011;49810;48.160;10.812;2023-05-29T06:18:56;18.88;;;9.18;;
47749;SDS011;49810;48.160;10.812;2023-05-29T06:21:27;14.98;;;9.05;;
47749;SDS011;49810;48.160;10.812;2023-05-29T06:23:55;16.55;;;9.48;;
47749;SDS011;49810;48.160;10.812;2023-05-29T06:26:23;16.45;;;8.85;;
47749;SDS011;49810;48.160;10.812;2023-05-29T06:28:53;14.63;;;8.77;;
47749;SDS011;49810;48.160;10.812;2023-05-29T06:31:21;17.55;;;8.85;;
47749;SDS011;49810;48.160;10.812;2023-05-29T06:33:49;16.73;;;9.13;;
47749;SDS011;49810;48.160;10.812;2023-05-29T06:36:18;15.55;;;8.85;;
47749;SDS011;49810;48.160;10.812;2023-05-29T06:38:48;18.02;;;10.07;;
47749;SDS011;49810;48.160;10.812;2023-05-29T06:41:16;18.15;;;9.60;;
47749;SDS011;49810;48.160;10.812;2023-05-29T06:43:44;14.45;;;8.50;;
47749;SDS011;49810;48.160;10.812;2023-05-29T06:46:13;17.70;;;9.65;;
47749;SDS011;49810;48.160;10.812;2023-05-29T06:48:41;14.50;;;8.27;;
47749;SDS011;49810;48.160;10.812;2023-05-29T06:51:09;17.63;;;8.40;;
47749;SDS011;49810;48.160;10.812;2023-05-29T06:53:40;17.02;;;9.10;;
47749;SDS011;49810;48.160;10.812;2023-05-29T06:56:12;16.83;;;9.70;;
47749;SDS011;49810;48.160;10.812;2023-05-29T06:58:41;17.02;;;8.95;;
47749;SDS011;49810;48.160;10.812;2023-05-29T07:01:09;19.92;;;10.05;;
47749;SDS011;49810;48.160;10.812;2023-05-29T07:03:43;15.25;;;8.15;;
47749;SDS011;49810;48.160;10.812;2023-05-29T07:06:13;16.42;;;8.65;;
47749;SDS011;49810;48.160;10.812;2023-05-29T07:08:42;14.95;;;8.43;;
47749;SDS011;49810;48.160;10.812;2023-05-29T07:11:11;15.23;;;7.85;;
47749;SDS011;49810;48.160;10.812;2023-05-29T07:13:40;13.32;;;8.20;;
47749;SDS011;49810;48.160;10.812;2023-05-29T07:16:08;18.40;;;9.30;;
47749;SDS011;49810;48.160;10.812;2023-05-29T07:18:54;12.85;;;8.23;;
47749;SDS011;49810;48.160;10.812;2023-05-29T07:21:22;15.15;;;8.10;;
47749;SDS011;49810;48.160;10.812;2023-05-29T07:23:50;14.45;;;8.02;;
47749;SDS011;49810;48.160;10.812;2023-05-29T07:26:18;13.35;;;7.78;;
47749;SDS011;49810;48.160;10.812;2023-05-29T07:28:50;16.70;;;8.32;;
47749;SDS011;49810;48.160;10.812;2023-05-29T07:31:19;14.48;;;7.45;;
47749;SDS011;49810;48.160;10.812;2023-05-29T07:33:48;13.75;;;7.57;;
47749;SDS011;49810;48.160;10.812;2023-05-29T07:36:19;10.90;;;6.45;;
47749;SDS011;49810;48.160;10.812;2023-05-29T07:38:49;13.40;;;7.25;;
47749;SDS011;49810;48.160;10.812;2023-05-29T07:41:18;13.63;;;7.22;;
47749;SDS011;49810;48.160;10.812;2023-05-29T07:43:52;12.02;;;7.40;;
47749;SDS011;49810;48.160;10.812;2023-05-29T07:46:22;12.70;;;6.90;;
47749;SDS011;49810;48.160;10.812;2023-05-29T07:48:56;16.10;;;7.40;;
47749;SDS011;49810;48.160;10.812;2023-05-29T07:51:24;12.25;;;6.75;;
47749;SDS011;49810;48.160;10.812;2023-05-29T07:53:53;10.88;;;6.55;;
47749;SDS011;49810;48.160;10.812;2023-05-29T07:56:23;13.13;;;7.28;;
47749;SDS011;49810;48.160;10.812;2023-05-29T07:58:54;12.75;;;7.60;;
47749;SDS011;49810;48.160;10.812;2023-05-29T08:01:23;11.90;;;7.45;;
47749;SDS011;49810;48.160;10.812;2023-05-29T08:03:52;13.60;;;7.75;;
47749;SDS011;49810;48.160;10.812;2023-05-29T08:06:30;12.90;;;6.53;;
47749;SDS011;49810;48.160;10.812;2023-05-29T08:09:00;9.98;;;6.45;;
47749;SDS011;49810;48.160;10.812;2023-05-29T08:11:28;12.40;;;6.80;;
47749;SDS011;49810;48.160;10.812;2023-05-29T08:13:58;12.75;;;6.95;;
47749;SDS011;49810;48.160;10.812;2023-05-29T08:16:27;12.65;;;6.25;;
47749;SDS011;49810;48.160;10.812;2023-05-29T08:18:55;12.93;;;7.05;;
47749;SDS011;49810;48.160;10.812;2023-05-29T08:21:23;11.10;;;6.30;;
47749;SDS011;49810;48.160;10.812;2023-05-29T08:23:52;12.93;;;6.47;;
47749;SDS011;49810;48.160;10.812;2023-05-29T08:26:20;11.23;;;5.75;;
47749;SDS011;49810;48.160;10.812;2023-05-29T08:28:49;13.23;;;6.97;;
47749;SDS011;49810;48.160;10.812;2023-05-29T08:31:19;10.48;;;6.18;;
47749;SDS011;49810;48.160;10.812;2023-05-29T08:33:47;10.75;;;5.35;;
47749;SDS011;49810;48.160;10.812;2023-05-29T08:36:15;11.38;;;6.38;;
47749;SDS011;49810;48.160;10.812;2023-05-29T08:38:43;14.23;;;6.25;;
47749;SDS011;49810;48.160;10.812;2023-05-29T08:41:12;11.68;;;6.22;;
47749;SDS011;49810;48.160;10.812;2023-05-29T08:43:43;10.02;;;5.53;;
47749;SDS011;49810;48.160;10.812;2023-05-29T08:46:12;11.15;;;6.25;;
47749;SDS011;49810;48.160;10.812;2023-05-29T08:48:43;10.57;;;6.82;;
47749;SDS011;49810;48.160;10.812;2023-05-29T08:51:17;10.48;;;5.80;;
47749;SDS011;49810;48.160;10.812;2023-05-29T08:53:47;13.38;;;6.47;;
47749;SDS011;49810;48.160;10.812;2023-05-29T08:56:15;10.63;;;5.82;;
47749;SDS011;49810;48.160;10.812;2023-05-29T08:58:59;11.25;;;5.90;;
47749;SDS011;49810;48.160;10.812;2023-05-29T09:01:33;10.05;;;5.95;;
47749;SDS011;49810;48.160;10.812;2023-05-29T09:04:03;13.00;;;6.43;;
47749;SDS011;49810;48.160;10.812;2023-05-29T09:06:31;15.00;;;6.35;;
47749;SDS011;49810;48.160;10.812;2023-05-29T09:09:00;9.63;;;5.70;;
47749;SDS011;49810;48.160;10.812;2023-05-29T09:11:28;10.35;;;5.88;;
47749;SDS011;49810;48.160;10.812;2023-05-29T09:13:56;15.90;;;5.82;;
47749;SDS011;49810;48.160;10.812;2023-05-29T09:16:24;10.90;;;5.63;;
47749;SDS011;49810;48.160;10.812;2023-05-29T09:18:52;8.55;;;5.13;;
47749;SDS011;49810;48.160;10.812;2023-05-29T09:21:31;7.75;;;4.97;;
47749;SDS011;49810;48.160;10.812;2023-05-29T09:24:02;8.60;;;4.97;;
47749;SDS011;49810;48.160;10.812;2023-05-29T09:26:31;9.82;;;5.25;;
47749;SDS011;49810;48.160;10.812;2023-05-29T09:29:01;9.27;;;5.03;;
47749;SDS011;49810;48.160;10.812;2023-05-29T09:31:33;10.73;;;5.63;;
47749;SDS011;49810;48.160;10.812;2023-05-29T09:34:03;10.60;;;5.53;;
47749;SDS011;49810;48.160;10.812;2023-05-29T09:36:32;10.02;;;4.80;;
47749;SDS011;49810;48.160;10.812;2023-05-29T09:39:01;12.68;;;5.43;;
47749;SDS011;49810;48.160;10.812;2023-05-29T09:41:41;8.38;;;5.20;;
47749;SDS011;49810;48.160;10.812;2023-05-29T09:44:11;8.05;;;4.75;;
47749;SDS011;49810;48.160;10.812;2023-05-29T09:46:40;11.07;;;5.10;;
47749;SDS011;49810;48.160;10.812;2023-05-29T09:49:11;10.18;;;5.70;;
47749;SDS011;49810;48.160;10.812;2023-05-29T09:51:40;11.40;;;5.60;;
47749;SDS011;49810;48.160;10.812;2023-05-29T09:54:14;9.93;;;5.28;;
47749;SDS011;49810;48.160;10.812;2023-05-29T09:56:42;9.15;;;5.00;;
47749;SDS011;49810;48.160;10.812;2023-05-29T09:59:12;8.27;;;4.85;;
47749;SDS011;49810;48.160;10.812;2023-05-29T10:01:40;9.02;;;5.47;;
47749;SDS011;49810;48.160;10.812;2023-05-29T10:04:10;11.20;;;5.63;;
47749;SDS011;49810;48.160;10.812;2023-05-29T10:06:44;7.78;;;4.65;;
47749;SDS011;49810;48.160;10.812;2023-05-29T10:09:15;13.35;;;5.70;;
47749;SDS011;49810;48.160;10.812;2023-05-29T10:11:43;12.60;;;4.70;;
47749;SDS011;49810;48.160;10.812;2023-05-29T10:14:14;8.77;;;4.93;;
47749;SDS011;49810;48.160;10.812;2023-05-29T10:16:43;12.10;;;5.10;;
47749;SDS011;49810;48.160;10.812;2023-05-29T10:19:12;10.85;;;5.20;;
47749;SDS011;49810;48.160;10.812;2023-05-29T10:21:42;11.68;;;5.32;;
47749;SDS011;49810;48.160;10.812;2023-05-29T10:24:11;10.00;;;5.07;;
47749;SDS011;49810;48.160;10.812;2023-05-29T10:26:40;9.40;;;5.07;;
47749;SDS011;49810;48.160;10.812;2023-05-29T10:29:11;8.82;;;4.25;;
47749;SDS011;49810;48.160;10.812;2023-05-29T10:31:43;9.55;;;5.07;;
47749;SDS011;49810;48.160;10.812;2023-05-29T10:34:18;11.23;;;5.95;;
47749;SDS011;49810;48.160;10.812;2023-05-29T10:36:54;10.90;;;5.13;;
47749;SDS011;49810;48.160;10.812;2023-05-29T10:39:24;10.40;;;5.13;;
47749;SDS011;49810;48.160;10.812;2023-05-29T10:41:56;9.90;;;5.45;;
47749;SDS011;49810;48.160;10.812;2023-05-29T10:44:38;8.27;;;5.05;;
47749;SDS011;49810;48.160;10.812;2023-05-29T10:47:06;9.38;;;4.82;;
47749;SDS011;49810;48.160;10.812;2023-05-29T10:49:35;7.63;;;4.32;;
47749;SDS011;49810;48.160;10.812;2023-05-29T10:52:06;10.43;;;4.35;;
47749;SDS011;49810;48.160;10.812;2023-05-29T10:54:49;7.97;;;5.13;;
47749;SDS011;49810;48.160;10.812;2023-05-29T10:57:18;8.80;;;5.07;;
47749;SDS011;49810;48.160;10.812;2023-05-29T10:59:48;10.38;;;5.25;;
47749;SDS011;49810;48.160;10.812;2023-05-29T11:02:24;8.65;;;5.03;;
47749;SDS011;49810;48.160;10.812;2023-05-29T11:05:05;9.70;;;4.97;;
47749;SDS011;49810;48.160;10.812;2023-05-29T11:07:39;7.80;;;4.43;;
47749;SDS011;49810;48.160;10.812;2023-05-29T11:10:18;9.85;;;5.07;;
47749;SDS011;49810;48.160;10.812;2023-05-29T11:13:06;9.48;;;4.70;;
47749;SDS011;49810;48.160;10.812;2023-05-29T11:15:34;8.82;;;4.72;;
47749;SDS011;49810;48.160;10.812;2023-05-29T11:18:06;8.65;;;5.00;;
47749;SDS011;49810;48.160;10.812;2023-05-29T11:20:42;8.45;;;4.43;;
47749;SDS011;49810;48.160;10.812;2023-05-29T11:23:15;9.70;;;4.70;;
47749;SDS011;49810;48.160;10.812;2023-05-29T11:25:44;8.63;;;4.35;;
47749;SDS011;49810;48.160;10.812;2023-05-29T11:28:13;7.30;;;4.45;;
47749;SDS011;49810;48.160;10.812;2023-05-29T11:30:42;9.73;;;4.93;;
47749;SDS011;49810;48.160;10.812;2023-05-29T11:33:12;8.38;;;5.18;;
47749;SDS011;49810;48.160;10.812;2023-05-29T11:35:42;10.57;;;4.57;;
47749;SDS011;49810;48.160;10.812;2023-05-29T11:38:11;10.98;;;4.45;;
47749;SDS011;49810;48.160;10.812;2023-05-29T11:40:40;8.82;;;4.57;;
47749;SDS011;49810;48.160;10.812;2023-05-29T11:43:09;8.07;;;4.97;;
47749;SDS011;49810;48.160;10.812;2023-05-29T11:45:39;9.73;;;4.47;;
47749;SDS011;49810;48.160;10.812;2023-05-29T11:48:06;7.45;;;4.43;;
47749;SDS011;49810;48.160;10.812;2023-05-29T11:50:35;8.75;;;4.10;;
47749;SDS011;49810;48.160;10.812;2023-05-29T11:53:05;6.88;;;3.85;;
47749;SDS011;49810;48.160;10.812;2023-05-29T11:55:33;7.60;;;4.35;;
47749;SDS011;49810;48.160;10.812;2023-05-29T11:58:03;9.15;;;4.00;;
47749;SDS011;49810;48.160;10.812;2023-05-29T12:00:32;7.35;;;4.43;;
47749;SDS011;49810;48.160;10.812;2023-05-29T12:03:00;10.15;;;4.05;;
47749;SDS011;49810;48.160;10.812;2023-05-29T12:05:31;8.40;;;3.90;;
47749;SDS011;49810;48.160;10.812;2023-05-29T12:08:00;7.20;;;4.00;;
47749;SDS011;49810;48.160;10.812;2023-05-29T12:10:31;9.05;;;3.97;;
47749;SDS011;49810;48.160;10.812;2023-05-29T12:12:59;7.78;;;4.43;;
47749;SDS011;49810;48.160;10.812;2023-05-29T12:15:29;7.60;;;4.70;;
47749;SDS011;49810;48.160;10.812;2023-05-29T12:17:57;7.22;;;4.40;;
47749;SDS011;49810;48.160;10.812;2023-05-29T12:20:25;6.43;;;4.15;;
47749;SDS011;49810;48.160;10.812;2023-05-29T12:22:53;6.07;;;4.05;;
47749;SDS011;49810;48.160;10.812;2023-05-29T12:25:27;6.32;;;3.85;;
47749;SDS011;49810;48.160;10.812;2023-05-29T12:27:55;7.10;;;3.90;;
47749;SDS011;49810;48.160;10.812;2023-05-29T12:30:24;6.88;;;3.85;;
47749;SDS011;49810;48.160;10.812;2023-05-29T12:32:56;7.30;;;3.58;;
47749;SDS011;49810;48.160;10.812;2023-05-29T12:35:26;8.38;;;4.25;;
47749;SDS011;49810;48.160;10.812;2023-05-29T12:37:55;6.70;;;3.65;;
47749;SDS011;49810;48.160;10.812;2023-05-29T12:40:24;7.65;;;3.35;;
47749;SDS011;49810;48.160;10.812;2023-05-29T12:42:54;6.25;;;3.10;;
47749;SDS011;49810;48.160;10.812;2023-05-29T12:45:24;5.35;;;3.45;;
47749;SDS011;49810;48.160;10.812;2023-05-29T12:47:52;6.82;;;3.75;;
47749;SDS011;49810;48.160;10.812;2023-05-29T12:50:23;7.80;;;4.00;;
47749;SDS011;49810;48.160;10.812;2023-05-29T12:52:54;5.50;;;3.70;;
47749;SDS011;49810;48.160;10.812;2023-05-29T12:55:22;5.55;;;3.42;;
47749;SDS011;49810;48.160;10.812;2023-05-29T12:57:51;5.63;;;3.80;;
47749;SDS011;49810;48.160;10.812;2023-05-29T13:00:20;5.70;;;3.45;;
47749;SDS011;49810;48.160;10.812;2023-05-29T13:02:49;6.22;;;4.05;;
47749;SDS011;49810;48.160;10.812;2023-05-29T13:05:18;6.32;;;3.38;;
47749;SDS011;49810;48.160;10.812;2023-05-29T13:07:52;6.50;;;3.53;;
47749;SDS011;49810;48.160;10.812;2023-05-29T13:10:20;6.32;;;3.67;;
47749;SDS011;49810;48.160;10.812;2023-05-29T13:12:49;6.85;;;4.13;;
47749;SDS011;49810;48.160;10.812;2023-05-29T13:15:20;7.70;;;4.20;;
47749;SDS011;49810;48.160;10.812;2023-05-29T13:17:48;5.90;;;3.95;;
47749;SDS011;49810;48.160;10.812;2023-05-29T13:20:17;8.77;;;4.40;;
47749;SDS011;49810;48.160;10.812;2023-05-29T13:22:46;6.50;;;3.92;;
47749;SDS011;49810;48.160;10.812;2023-05-29T13:25:16;12.25;;;4.20;;
47749;SDS011;49810;48.160;10.812;2023-05-29T13:27:44;7.25;;;3.85;;
47749;SDS011;49810;48.160;10.812;2023-05-29T13:30:13;7.55;;;3.85;;
47749;SDS011;49810;48.160;10.812;2023-05-29T13:32:41;8.95;;;3.90;;
47749;SDS011;49810;48.160;10.812;2023-05-29T13:35:09;6.00;;;3.50;;
47749;SDS011;49810;48.160;10.812;2023-05-29T13:37:37;7.15;;;4.00;;
47749;SDS011;49810;48.160;10.812;2023-05-29T13:40:06;6.88;;;4.00;;
47749;SDS011;49810;48.160;10.812;2023-05-29T13:42:38;6.95;;;4.20;;
47749;SDS011;49810;48.160;10.812;2023-05-29T13:45:06;7.65;;;4.10;;
47749;SDS011;49810;48.160;10.812;2023-05-29T13:47:34;5.40;;;3.53;;
47749;SDS011;49810;48.160;10.812;2023-05-29T13:50:03;8.63;;;4.30;;
47749;SDS011;49810;48.160;10.812;2023-05-29T13:52:32;7.78;;;4.45;;
47749;SDS011;49810;48.160;10.812;2023-05-29T13:55:00;6.25;;;4.03;;
47749;SDS011;49810;48.160;10.812;2023-05-29T13:57:32;9.13;;;4.30;;
47749;SDS011;49810;48.160;10.812;2023-05-29T14:00:02;7.30;;;4.43;;
47749;SDS011;49810;48.160;10.812;2023-05-29T14:02:32;8.98;;;4.57;;
47749;SDS011;49810;48.160;10.812;2023-05-29T14:05:01;6.65;;;3.92;;
47749;SDS011;49810;48.160;10.812;2023-05-29T14:07:29;6.97;;;3.88;;
47749;SDS011;49810;48.160;10.812;2023-05-29T14:09:58;9.23;;;4.32;;
47749;SDS011;49810;48.160;10.812;2023-05-29T14:12:25;6.72;;;4.22;;
47749;SDS011;49810;48.160;10.812;2023-05-29T14:14:53;7.40;;;3.97;;
47749;SDS011;49810;48.160;10.812;2023-05-29T14:17:23;7.28;;;4.28;;
47749;SDS011;49810;48.160;10.812;2023-05-29T14:19:52;7.38;;;3.90;;
47749;SDS011;49810;48.160;10.812;2023-05-29T14:22:23;6.22;;;3.85;;
47749;SDS011;49810;48.160;10.812;2023-05-29T14:24:51;9.80;;;4.10;;
47749;SDS011;49810;48.160;10.812;2023-05-29T14:27:19;7.78;;;4.05;;
47749;SDS011;49810;48.160;10.812;2023-05-29T14:29:49;9.35;;;4.60;;
47749;SDS011;49810;48.160;10.812;2023-05-29T14:32:17;7.25;;;4.30;;
47749;SDS011;49810;48.160;10.812;2023-05-29T14:34:46;7.32;;;4.60;;
47749;SDS011;49810;48.160;10.812;2023-05-29T14:37:14;7.55;;;5.05;;